»·PEaware :: DAL2595 KSEA-KPDX

DAL2595 :: KSEA-KPDX

FLIGHT INFORMATION

Flight Status: Arrived
Operator:
Delta Air Lines
More flights by this operator :: More flights under this callsign
Pilot: Ryan L. (9775)
Aircraft: BOEING 737-800
(B738)
More flights by this aircraft type
Origin: KSEA Seattle-Tacoma Intl
United States
Destination: KPDX Portland Intl
United States
More flights between these airports :: More routes between these airports
Route: +SEA6 BUWZO KRATR2
File this flight plan on PilotEdge
Remarks:
Altitude:
(Current/Filed)
17,000ft
Speed:
(Current/Filed)
350kts
Departed: 07-Jan-18 08:25 PM
Arrived: 07-Jan-18 08:58 PM
Distance/Time
Traveled:
112nm/0:32
Distance/Time
To Go:
Arrived

Flight Plot

Page will automatically refresh every two minutes.

Flight plan parsing failed; only flown route is shown


Map Options




Map Legend


Flown Route
Filed Route
Departure Airport
Arrival Airport
Navaid (VOR, NDB)
Fix

Horizontal Profiles

Position Reports

Time Latitude Longitude Heading Altitude Ground
Speed
07-Jan-18 20:04 47.440591 -122.304260 42 441ft 0kts
07-Jan-18 20:05 47.440591 -122.304260 42 441ft 0kts
07-Jan-18 20:06 47.440591 -122.304260 42 441ft 0kts
07-Jan-18 20:07 47.440591 -122.304260 42 441ft 0kts
07-Jan-18 20:08 47.440591 -122.304260 42 441ft 0kts
07-Jan-18 20:09 47.440591 -122.304260 42 441ft 0kts
07-Jan-18 20:10 47.440591 -122.304260 42 441ft 0kts
07-Jan-18 20:11 47.440591 -122.304260 42 441ft 0kts
07-Jan-18 20:12 47.440591 -122.304260 42 441ft 0kts
07-Jan-18 20:13 47.440591 -122.304260 42 441ft 0kts
07-Jan-18 20:14 47.440591 -122.304260 42 441ft 0kts
07-Jan-18 20:15 47.440591 -122.304260 42 440ft 0kts
07-Jan-18 20:16 47.440392 -122.304418 10 441ft 2kts
07-Jan-18 20:17 47.439911 -122.304009 287 441ft 2kts
07-Jan-18 20:18 47.439890 -122.303752 269 440ft 0kts
07-Jan-18 20:19 47.439890 -122.303752 269 440ft 0kts
07-Jan-18 20:20 47.439890 -122.303752 269 440ft 0kts
07-Jan-18 20:21 47.439890 -122.303752 269 440ft 0kts
07-Jan-18 20:22 47.439890 -122.306110 270 441ft 0kts
07-Jan-18 20:23 47.440364 -122.306438 4 440ft 11kts
07-Jan-18 20:24 47.444973 -122.306326 0 441ft 16kts
07-Jan-18 20:25 47.449023 -122.306209 357 440ft 14kts
07-Jan-18 20:26 47.453240 -122.306228 0 440ft 15kts
07-Jan-18 20:27 47.457695 -122.306178 0 441ft 16kts
07-Jan-18 20:28 47.462565 -122.306132 0 441ft 15kts
07-Jan-18 20:29 47.463637 -122.306397 308 440ft 0kts
07-Jan-18 20:30 47.463409 -122.307650 201 441ft 8kts
07-Jan-18 20:31 47.443893 -122.307854 179 530ft 169kts
07-Jan-18 20:32 47.394061 -122.305796 177 2558ft 200kts
07-Jan-18 20:33 47.337511 -122.301529 177 4821ft 226kts
07-Jan-18 20:34 47.277668 -122.301945 182 7128ft 230kts
07-Jan-18 20:35 47.205599 -122.303683 183 8562ft 283kts
07-Jan-18 20:36 47.126586 -122.305533 183 10702ft 302kts
07-Jan-18 20:37 47.040540 -122.307555 184 12840ft 317kts
07-Jan-18 20:38 46.953332 -122.309592 184 15127ft 321kts
07-Jan-18 20:39 46.864080 -122.309707 183 16991ft 345kts
07-Jan-18 20:40 46.769828 -122.309664 183 16990ft 364kts
07-Jan-18 20:41 46.668862 -122.309620 183 16993ft 363kts
07-Jan-18 20:42 46.568925 -122.309630 183 16999ft 363kts
07-Jan-18 20:43 46.468842 -122.309613 183 16996ft 353kts
07-Jan-18 20:44 46.378143 -122.309603 183 16389ft 325kts
07-Jan-18 20:45 46.290097 -122.309604 183 14824ft 315kts
07-Jan-18 20:46 46.208000 -122.336328 203 13302ft 304kts
07-Jan-18 20:47 46.131874 -122.379284 203 11821ft 285kts
07-Jan-18 20:48 46.060769 -122.418529 203 10469ft 275kts
07-Jan-18 20:49 45.989011 -122.457234 200 9121ft 278kts
07-Jan-18 20:50 45.922786 -122.497831 219 7875ft 251kts
07-Jan-18 20:51 45.871329 -122.563514 219 6840ft 252kts
07-Jan-18 20:52 45.820443 -122.627943 219 5822ft 234kts
07-Jan-18 20:53 45.774858 -122.686311 226 5016ft 206kts
07-Jan-18 20:54 45.752619 -122.760897 286 5034ft 229kts
07-Jan-18 20:55 45.778490 -122.843617 292 5029ft 228kts
07-Jan-18 20:56 45.762673 -122.917362 206 4423ft 206kts
07-Jan-18 20:57 45.715647 -122.901260 140 3381ft 178kts
07-Jan-18 20:58 45.692807 -122.848143 118 3039ft 149kts
07-Jan-18 20:59 45.672585 -122.796082 118 3030ft 151kts
07-Jan-18 21:00 45.652519 -122.744140 118 2368ft 150kts
07-Jan-18 21:01 45.632380 -122.692181 118 1573ft 149kts
07-Jan-18 21:02 45.612759 -122.641457 117 789ft 145kts
07-Jan-18 21:03 45.593375 -122.591963 118 40ft 138kts
07-Jan-18 21:04 45.584568 -122.569406 122 36ft 20kts
07-Jan-18 21:05 45.584026 -122.571135 299 37ft 11kts
07-Jan-18 21:06 45.585735 -122.575586 299 37ft 13kts
07-Jan-18 21:07 45.587328 -122.579701 298 36ft 16kts
07-Jan-18 21:08 45.589514 -122.585421 285 36ft 16kts
07-Jan-18 21:09 45.590932 -122.591384 300 37ft 15kts
07-Jan-18 21:10 45.592343 -122.595322 218 36ft 3kts
07-Jan-18 21:11 45.591893 -122.595994 240 37ft 0kts
07-Jan-18 21:12 45.591893 -122.595994 240 37ft 0kts
07-Jan-18 21:13 45.591893 -122.595994 240 37ft 0kts
07-Jan-18 21:14 45.591893 -122.595994 240 37ft 0kts
07-Jan-18 21:15 45.591893 -122.595994 240 37ft 0kts

Navigation Log

Ident Type
Flight plan parsing failed, navigation log unavailable